Time;durP1;ratioP1;P1;durP2;ratioP2;P2;SDS_P1;SDS_P2;PMS_P1;PMS_P2;Temp;Humidity;BMP_temperature;BMP_pressure;BME280_temperature;BME280_humidity;BME280_pressure;Samples;Min_cycle;Max_cycle;Signal;HPM_P1;HPM_P2
2021/08/30 00:02:22;;;;;;;16.45;12.15;;;16.50;99.90;;;;;;5011618;28;25126;-71
2021/08/30 00:04:48;;;;;;;17.00;10.35;;;16.50;99.90;;;;;;5011336;28;25087;-71
2021/08/30 00:07:14;;;;;;;19.95;10.63;;;16.50;99.90;;;;;;5012249;28;25100;-71
2021/08/30 00:09:41;;;;;;;18.58;10.80;;;16.50;99.90;;;;;;5012016;28;25076;-73
2021/08/30 00:12:07;;;;;;;19.95;11.27;;;16.50;99.90;;;;;;5012771;28;25108;-71
2021/08/30 00:14:33;;;;;;;13.43;9.98;;;16.50;99.90;;;;;;5012651;28;25080;-70
2021/08/30 00:16:59;;;;;;;18.52;11.05;;;16.50;99.90;;;;;;5011189;28;25063;-72
2021/08/30 00:19:26;;;;;;;20.23;12.20;;;16.50;99.90;;;;;;5010663;28;25095;-72
2021/08/30 00:21:52;;;;;;;14.18;10.10;;;16.50;99.90;;;;;;5011806;28;25074;-74
2021/08/30 00:24:23;;;;;;;18.98;11.25;;;16.50;99.90;;;;;;5010929;28;25134;-71
2021/08/30 00:26:49;;;;;;;17.55;10.63;;;16.40;99.90;;;;;;5010804;28;25141;-73
2021/08/30 00:29:14;;;;;;;18.95;10.52;;;16.40;99.90;;;;;;5007920;28;25067;-72
2021/08/30 00:31:41;;;;;;;15.95;10.95;;;16.40;99.90;;;;;;5004863;28;25091;-73
2021/08/30 00:34:07;;;;;;;16.23;11.00;;;16.40;99.90;;;;;;5010017;28;25078;-71
2021/08/30 00:36:33;;;;;;;18.90;11.18;;;16.40;99.90;;;;;;5010060;28;25065;-71
2021/08/30 00:38:58;;;;;;;17.88;10.48;;;16.40;99.90;;;;;;5004451;28;25071;-72
2021/08/30 00:41:26;;;;;;;18.63;11.18;;;16.40;99.90;;;;;;5009630;28;25071;-70
2021/08/30 00:43:53;;;;;;;17.98;11.50;;;16.40;99.90;;;;;;5010617;28;25084;-73
2021/08/30 00:46:19;;;;;;;15.95;10.82;;;16.40;99.90;;;;;;5010337;28;25064;-71
2021/08/30 00:48:46;;;;;;;15.00;11.25;;;16.40;99.90;;;;;;5010957;28;25075;-70
2021/08/30 00:51:17;;;;;;;17.75;11.20;;;16.40;99.90;;;;;;5011473;28;25060;-73
2021/08/30 00:53:45;;;;;;;17.35;10.45;;;16.40;99.90;;;;;;5011880;28;25071;-72
2021/08/30 00:56:10;;;;;;;16.15;9.98;;;16.40;99.90;;;;;;5013394;28;25111;-72
2021/08/30 00:58:39;;;;;;;14.35;9.98;;;16.40;99.90;;;;;;5012113;28;25076;-73
2021/08/30 01:01:05;;;;;;;17.75;11.00;;;16.40;99.90;;;;;;5012801;28;25158;-71
2021/08/30 01:03:31;;;;;;;12.40;10.60;;;16.40;99.90;;;;;;5011791;28;25090;-73
2021/08/30 01:06:06;;;;;;;17.70;10.75;;;16.40;99.90;;;;;;4995078;28;25045;-72
2021/08/30 01:08:37;;;;;;;15.50;10.60;;;16.40;99.90;;;;;;5012424;28;25108;-73
2021/08/30 01:11:11;;;;;;;15.02;10.93;;;16.40;99.90;;;;;;5011146;28;25104;-73
2021/08/30 01:13:45;;;;;;;15.18;10.50;;;16.40;99.90;;;;;;5011702;28;25184;-72
2021/08/30 01:16:13;;;;;;;13.50;10.63;;;16.40;99.90;;;;;;5011542;28;25076;-71
2021/08/30 01:18:41;;;;;;;14.13;10.23;;;16.40;99.90;;;;;;5011576;28;25058;-73
2021/08/30 01:21:31;;;;;;;14.90;11.02;;;16.40;99.90;;;;;;5009683;28;25055;-74
2021/08/30 01:24:07;;;;;;;15.68;11.02;;;16.40;99.90;;;;;;5010995;28;25130;-72
2021/08/30 01:26:56;;;;;;;17.17;10.88;;;16.40;99.90;;;;;;5009185;28;25070;-72
2021/08/30 01:29:29;;;;;;;18.35;10.88;;;16.40;99.90;;;;;;5005637;28;25057;-73
2021/08/30 01:32:01;;;;;;;16.35;11.50;;;16.40;99.90;;;;;;5010865;28;25065;-75
2021/08/30 01:34:28;;;;;;;14.80;11.32;;;16.40;99.90;;;;;;5011012;28;25070;-73
2021/08/30 01:36:54;;;;;;;18.10;12.43;;;16.40;99.90;;;;;;5010762;28;25070;-73
2021/08/30 01:39:26;;;;;;;17.85;11.30;;;16.40;99.90;;;;;;5010556;28;25122;-72
2021/08/30 01:41:52;;;;;;;15.18;10.88;;;16.40;99.90;;;;;;5007355;28;25175;-72
2021/08/30 01:44:19;;;;;;;16.58;11.52;;;16.40;99.90;;;;;;5008907;28;25058;-71
2021/08/30 01:46:45;;;;;;;19.30;13.15;;;16.40;99.90;;;;;;5009860;28;25073;-73
2021/08/30 01:49:13;;;;;;;16.98;11.50;;;16.40;99.90;;;;;;4991604;28;25054;-71
2021/08/30 01:51:39;;;;;;;16.38;11.30;;;16.40;99.90;;;;;;5007549;28;25166;-73
2021/08/30 01:54:05;;;;;;;15.68;11.15;;;16.40;99.90;;;;;;5001826;28;25047;-73
2021/08/30 01:56:33;;;;;;;19.00;11.32;;;16.40;99.90;;;;;;5010589;28;25150;-75
2021/08/30 02:01:45;;;;;;;18.80;11.90;;;16.30;99.90;;;;;;4999969;28;25109;-71
2021/08/30 02:04:10;;;;;;;15.60;11.85;;;16.30;99.90;;;;;;5012181;28;25078;-72
2021/08/30 02:06:36;;;;;;;15.68;11.32;;;16.40;99.90;;;;;;5009267;28;25057;-71
2021/08/30 02:09:04;;;;;;;17.30;11.85;;;16.40;99.90;;;;;;5009026;28;25077;-72
2021/08/30 02:11:33;;;;;;;15.95;11.05;;;16.30;99.90;;;;;;5009130;28;25068;-73
2021/08/30 02:14:00;;;;;;;18.00;11.55;;;16.40;99.90;;;;;;5010014;28;25081;-74
2021/08/30 02:16:27;;;;;;;24.00;11.57;;;16.40;99.90;;;;;;5009506;28;25172;-73
2021/08/30 02:19:08;;;;;;;17.75;13.75;;;16.40;99.90;;;;;;5009125;28;25074;-73
2021/08/30 02:21:43;;;;;;;20.05;12.50;;;16.30;99.90;;;;;;5008883;28;25132;-74
2021/08/30 02:24:08;;;;;;;16.58;12.75;;;16.30;99.90;;;;;;5009779;28;25140;-72
2021/08/30 02:26:48;;;;;;;17.80;11.98;;;16.30;99.90;;;;;;5009544;28;25069;-74
2021/08/30 02:29:18;;;;;;;19.40;12.13;;;16.30;99.90;;;;;;5010052;28;25059;-72
2021/08/30 02:31:48;;;;;;;20.05;12.73;;;16.30;99.90;;;;;;5008277;28;25069;-72
2021/08/30 02:34:16;;;;;;;19.45;13.18;;;16.20;99.90;;;;;;5011237;28;25149;-73
2021/08/30 02:36:42;;;;;;;18.23;12.20;;;16.30;99.90;;;;;;5012852;28;25082;-71
2021/08/30 02:39:09;;;;;;;19.58;13.35;;;16.30;99.90;;;;;;5011839;28;25116;-71
2021/08/30 02:41:35;;;;;;;20.05;13.48;;;16.30;99.90;;;;;;4991448;28;25054;-72
2021/08/30 02:44:01;;;;;;;19.02;11.80;;;16.20;99.90;;;;;;5008240;28;25055;-72
2021/08/30 02:46:30;;;;;;;24.05;14.00;;;16.30;99.90;;;;;;5009377;28;25094;-71
2021/08/30 02:48:56;;;;;;;19.60;12.93;;;16.40;99.90;;;;;;5008809;28;25106;-71
2021/08/30 02:51:23;;;;;;;27.45;14.05;;;16.40;99.90;;;;;;5012232;28;25097;-72
2021/08/30 02:53:50;;;;;;;31.60;14.10;;;16.30;99.90;;;;;;5009088;28;25093;-72
2021/08/30 02:56:16;;;;;;;27.42;13.95;;;16.30;99.90;;;;;;5009984;28;25078;-71
2021/08/30 02:58:43;;;;;;;21.50;15.00;;;16.20;99.90;;;;;;5011128;28;25063;-73
2021/08/30 03:01:09;;;;;;;23.70;15.80;;;16.20;99.90;;;;;;5008569;28;25147;-73
2021/08/30 03:03:35;;;;;;;30.00;15.18;;;16.30;99.90;;;;;;5006324;28;25060;-71
2021/08/30 03:06:01;;;;;;;23.42;15.98;;;16.20;99.90;;;;;;5017097;28;24884;-73
2021/08/30 03:08:26;;;;;;;20.98;15.15;;;16.30;99.90;;;;;;5015394;28;25162;-76
2021/08/30 03:10:54;;;;;;;27.08;16.33;;;16.20;99.90;;;;;;4997550;28;25072;-73
2021/08/30 03:13:19;;;;;;;26.17;16.70;;;16.10;99.90;;;;;;5016613;28;25089;-71
2021/08/30 03:15:48;;;;;;;24.55;15.40;;;16.10;99.90;;;;;;5016834;28;25109;-73
2021/08/30 03:18:16;;;;;;;23.85;16.10;;;16.10;99.90;;;;;;5014704;28;25091;-73
2021/08/30 03:20:43;;;;;;;31.02;18.08;;;16.20;99.90;;;;;;5019178;28;25091;-73
2021/08/30 03:23:10;;;;;;;30.52;18.33;;;16.10;99.90;;;;;;5019513;28;25071;-73
2021/08/30 03:25:36;;;;;;;25.65;17.88;;;16.10;99.90;;;;;;5017048;28;25058;-72
2021/08/30 03:28:05;;;;;;;25.67;18.33;;;16.10;99.90;;;;;;4993945;28;25061;-72
2021/08/30 03:30:31;;;;;;;32.30;18.80;;;16.10;99.90;;;;;;5012715;28;25053;-72
2021/08/30 03:32:58;;;;;;;32.05;19.58;;;16.10;99.90;;;;;;5012754;28;25065;-72
2021/08/30 03:35:24;;;;;;;35.70;20.52;;;16.10;99.90;;;;;;5012184;28;25108;-71
2021/08/30 03:37:50;;;;;;;29.33;18.60;;;16.00;99.90;;;;;;5013182;28;25071;-71
2021/08/30 03:40:18;;;;;;;36.63;19.95;;;16.00;99.90;;;;;;5013194;28;25072;-72
2021/08/30 03:42:45;;;;;;;25.80;18.40;;;16.00;99.90;;;;;;5011369;28;25529;-71
2021/08/30 03:45:12;;;;;;;32.10;20.08;;;16.00;99.90;;;;;;4995113;28;25123;-73
2021/08/30 03:47:38;;;;;;;30.48;18.75;;;16.00;99.90;;;;;;5011915;28;25066;-71
2021/08/30 03:50:06;;;;;;;30.25;19.92;;;16.00;99.90;;;;;;5011983;28;25053;-73
2021/08/30 03:52:34;;;;;;;29.55;18.33;;;16.00;99.90;;;;;;5011404;28;25075;-72
2021/08/30 03:55:00;;;;;;;31.25;19.30;;;16.00;99.90;;;;;;5011141;28;25082;-74
2021/08/30 03:57:26;;;;;;;32.42;19.10;;;16.00;99.90;;;;;;5010857;28;25053;-72
2021/08/30 03:59:58;;;;;;;31.80;19.50;;;16.00;99.90;;;;;;5011733;28;25098;-72
2021/08/30 04:02:26;;;;;;;33.00;20.40;;;15.90;99.90;;;;;;5006247;28;25053;-73
2021/08/30 04:04:52;;;;;;;31.58;18.77;;;15.90;99.90;;;;;;5012308;28;25087;-71
2021/08/30 04:07:19;;;;;;;29.38;20.13;;;15.90;99.90;;;;;;5010592;28;25126;-71
2021/08/30 04:09:45;;;;;;;37.30;20.65;;;15.90;99.90;;;;;;5010245;28;25066;-71
2021/08/30 04:12:11;;;;;;;35.38;19.30;;;15.80;99.90;;;;;;5010348;28;25052;-73
2021/08/30 04:14:38;;;;;;;34.17;19.75;;;15.80;99.90;;;;;;5007664;28;25062;-73
2021/08/30 04:17:04;;;;;;;31.73;20.40;;;15.80;99.90;;;;;;5010492;28;25120;-74
2021/08/30 04:19:29;;;;;;;35.13;22.77;;;15.80;99.90;;;;;;5011910;28;25062;-71
2021/08/30 04:21:55;;;;;;;37.17;21.17;;;15.80;99.90;;;;;;5011818;28;25074;-74
2021/08/30 04:24:21;;;;;;;30.27;21.23;;;15.80;99.90;;;;;;5011970;28;25066;-74
2021/08/30 04:26:47;;;;;;;38.38;22.60;;;15.70;99.90;;;;;;5009816;28;25087;-72
2021/08/30 04:29:14;;;;;;;38.28;22.13;;;15.70;99.90;;;;;;5011447;28;25110;-70
2021/08/30 04:31:39;;;;;;;35.55;21.60;;;15.70;99.90;;;;;;5010642;28;25046;-73
2021/08/30 04:34:05;;;;;;;28.98;19.83;;;15.70;99.90;;;;;;4992666;28;25061;-71
2021/08/30 04:36:30;;;;;;;37.08;21.60;;;15.60;99.90;;;;;;5011313;28;25067;-72
2021/08/30 04:38:56;;;;;;;29.45;21.98;;;15.60;99.90;;;;;;5010448;28;25065;-74
2021/08/30 04:41:22;;;;;;;37.80;23.50;;;15.60;99.90;;;;;;5009142;28;25086;-72
2021/08/30 04:43:50;;;;;;;33.28;21.95;;;15.60;99.90;;;;;;5009265;28;25108;-74
2021/08/30 04:46:16;;;;;;;37.05;21.95;;;15.70;99.90;;;;;;5009070;28;25075;-71
2021/08/30 04:48:41;;;;;;;36.72;21.98;;;15.60;99.90;;;;;;5007352;28;24987;-73
2021/08/30 04:51:08;;;;;;;34.72;21.75;;;15.60;99.90;;;;;;5008228;28;25072;-72
2021/08/30 04:53:33;;;;;;;31.77;21.08;;;15.70;99.90;;;;;;5008902;28;25059;-72
2021/08/30 04:55:59;;;;;;;33.53;21.40;;;15.60;99.90;;;;;;5009387;28;25141;-73
2021/08/30 04:58:25;;;;;;;37.90;21.73;;;15.60;99.90;;;;;;5008432;28;25064;-73
2021/08/30 05:00:51;;;;;;;35.72;21.45;;;15.70;99.90;;;;;;4989544;28;25092;-72
2021/08/30 05:03:16;;;;;;;37.47;21.35;;;15.70;99.90;;;;;;5008706;28;25142;-71
2021/08/30 05:05:42;;;;;;;39.03;24.00;;;15.70;99.90;;;;;;5008089;28;25185;-70
2021/08/30 05:08:07;;;;;;;37.08;23.60;;;15.70;99.90;;;;;;5006110;28;25088;-71
2021/08/30 05:10:33;;;;;;;36.03;22.65;;;15.60;99.90;;;;;;5007748;28;25112;-70
2021/08/30 05:12:59;;;;;;;38.80;22.70;;;15.60;99.90;;;;;;5006979;28;25057;-70
2021/08/30 05:15:25;;;;;;;33.28;22.83;;;15.60;99.90;;;;;;5007962;28;25096;-72
2021/08/30 05:17:51;;;;;;;39.75;22.17;;;15.60;99.90;;;;;;5008089;28;25075;-74
2021/08/30 05:20:17;;;;;;;37.25;21.88;;;15.70;99.90;;;;;;5006577;28;26186;-70
2021/08/30 05:22:42;;;;;;;32.65;22.50;;;15.70;99.90;;;;;;5007091;28;25054;-71
2021/08/30 05:25:09;;;;;;;34.00;22.40;;;15.70;99.90;;;;;;5006897;28;25139;-71
2021/08/30 05:27:34;;;;;;;38.00;23.88;;;15.70;99.90;;;;;;5006878;28;25085;-73
2021/08/30 05:30:00;;;;;;;35.83;22.67;;;15.70;99.90;;;;;;5005488;28;25060;-71
2021/08/30 05:32:25;;;;;;;36.00;23.98;;;15.70;99.90;;;;;;5007075;28;25175;-73
2021/08/30 05:34:51;;;;;;;36.17;23.80;;;15.70;99.90;;;;;;5006616;28;25073;-72
2021/08/30 05:37:17;;;;;;;39.90;23.08;;;15.70;99.90;;;;;;5004615;28;25094;-72
2021/08/30 05:39:42;;;;;;;33.55;23.13;;;15.80;99.90;;;;;;5002649;28;25062;-72
2021/08/30 05:42:08;;;;;;;31.83;21.67;;;15.80;99.90;;;;;;5005603;28;25056;-72
2021/08/30 05:44:33;;;;;;;36.35;24.90;;;15.80;99.90;;;;;;5005757;28;25061;-70
2021/08/30 05:46:59;;;;;;;43.53;24.15;;;15.80;99.90;;;;;;4991576;28;25066;-73
2021/08/30 05:49:24;;;;;;;37.67;24.20;;;15.80;99.90;;;;;;5008019;28;25064;-73
2021/08/30 05:51:50;;;;;;;36.22;23.27;;;15.80;99.90;;;;;;5006934;28;25055;-72
2021/08/30 05:54:16;;;;;;;35.70;24.02;;;15.90;99.90;;;;;;4988872;28;25081;-71
2021/08/30 05:56:41;;;;;;;36.05;23.35;;;15.80;99.90;;;;;;5006238;28;25096;-71
2021/08/30 05:59:07;;;;;;;47.20;25.85;;;15.90;99.90;;;;;;5007590;28;25040;-74
2021/08/30 06:01:35;;;;;;;41.42;24.23;;;16.00;99.90;;;;;;5006099;28;25067;-72
2021/08/30 06:04:02;;;;;;;36.47;23.88;;;16.00;99.90;;;;;;5007281;28;25085;-74
2021/08/30 06:06:28;;;;;;;39.35;25.40;;;16.00;99.90;;;;;;5003268;28;25059;-72
2021/08/30 06:08:54;;;;;;;34.80;23.25;;;16.10;99.90;;;;;;5004204;28;25061;-72
2021/08/30 06:11:19;;;;;;;38.40;24.15;;;16.00;99.90;;;;;;5005748;28;25135;-73
2021/08/30 06:13:45;;;;;;;35.53;24.17;;;16.10;99.90;;;;;;5006746;28;25073;-75
2021/08/30 06:16:10;;;;;;;41.28;24.98;;;16.00;99.90;;;;;;5009059;28;25084;-73
2021/08/30 06:18:36;;;;;;;37.63;24.88;;;16.10;99.90;;;;;;5009498;28;25101;-73
2021/08/30 06:21:01;;;;;;;32.05;23.75;;;16.20;99.90;;;;;;5006526;28;25139;-72
2021/08/30 06:23:29;;;;;;;39.90;24.40;;;16.10;99.90;;;;;;5006202;28;25157;-70
2021/08/30 06:25:54;;;;;;;41.45;24.90;;;16.20;99.90;;;;;;5007116;28;25046;-73
2021/08/30 06:28:20;;;;;;;46.63;25.42;;;16.20;99.90;;;;;;5006456;28;25084;-72
2021/08/30 06:30:45;;;;;;;39.35;24.05;;;16.20;99.90;;;;;;5005952;28;25099;-71
2021/08/30 06:33:11;;;;;;;37.38;24.65;;;16.30;99.90;;;;;;5006902;28;25084;-72
2021/08/30 06:35:42;;;;;;;39.15;25.20;;;16.30;99.90;;;;;;5007678;28;25070;-72
2021/08/30 06:38:08;;;;;;;37.85;24.85;;;16.30;99.90;;;;;;5011270;28;25068;-74
2021/08/30 06:40:33;;;;;;;37.47;25.60;;;16.40;99.90;;;;;;5011154;28;25077;-71
2021/08/30 06:43:00;;;;;;;38.88;23.63;;;16.40;99.90;;;;;;5010768;28;25077;-73
2021/08/30 06:45:28;;;;;;;35.88;23.85;;;16.40;99.90;;;;;;5010841;28;25102;-72
2021/08/30 06:47:54;;;;;;;47.08;24.65;;;16.40;99.90;;;;;;5010538;28;25088;-72
2021/08/30 06:50:19;;;;;;;39.85;24.85;;;16.40;99.90;;;;;;5010036;28;25093;-72
2021/08/30 06:52:45;;;;;;;32.53;22.67;;;16.40;99.90;;;;;;5010997;28;25134;-72
2021/08/30 06:55:11;;;;;;;38.33;24.17;;;16.50;99.90;;;;;;4992887;28;25069;-71
2021/08/30 06:57:38;;;;;;;36.17;23.15;;;16.50;99.90;;;;;;5010436;28;25094;-72
2021/08/30 07:00:05;;;;;;;38.70;22.50;;;16.50;99.90;;;;;;5010346;28;25074;-74
2021/08/30 07:02:31;;;;;;;38.75;25.35;;;16.60;99.90;;;;;;5009407;28;25065;-75
2021/08/30 07:04:57;;;;;;;36.85;22.83;;;16.60;99.90;;;;;;5010564;28;25094;-74
2021/08/30 07:07:23;;;;;;;33.63;23.15;;;16.60;99.90;;;;;;5009573;28;25126;-74
2021/08/30 07:09:49;;;;;;;36.95;22.02;;;16.70;99.90;;;;;;5010728;28;25091;-74
2021/08/30 07:12:14;;;;;;;37.63;22.15;;;16.70;99.90;;;;;;5010559;28;25066;-73
2021/08/30 07:14:40;;;;;;;34.95;22.35;;;16.80;99.90;;;;;;5009846;28;25059;-73
2021/08/30 07:17:06;;;;;;;33.20;23.05;;;16.80;99.90;;;;;;4992456;28;25142;-73
2021/08/30 07:19:31;;;;;;;38.30;22.50;;;16.80;99.90;;;;;;5010359;28;25069;-72
2021/08/30 07:21:57;;;;;;;36.55;22.90;;;16.90;99.90;;;;;;5009544;28;25088;-72
2021/08/30 07:24:22;;;;;;;33.92;22.35;;;17.00;99.90;;;;;;5010353;28;25130;-74
2021/08/30 07:26:48;;;;;;;33.63;22.77;;;16.90;99.90;;;;;;5009258;28;25045;-71
2021/08/30 07:29:14;;;;;;;38.33;21.30;;;17.00;99.90;;;;;;5010125;28;25068;-73
2021/08/30 07:31:40;;;;;;;32.83;21.58;;;17.00;99.90;;;;;;5009731;28;25058;-71
2021/08/30 07:34:06;;;;;;;33.53;22.25;;;17.10;99.90;;;;;;5009188;28;25132;-73
2021/08/30 07:36:32;;;;;;;29.13;21.08;;;17.00;99.90;;;;;;5009613;28;25083;-72
2021/08/30 07:39:01;;;;;;;37.03;21.52;;;17.00;99.90;;;;;;5003705;28;25137;-75
2021/08/30 07:41:28;;;;;;;33.97;21.77;;;17.10;99.90;;;;;;5011722;28;25065;-70
2021/08/30 07:43:54;;;;;;;32.20;20.92;;;17.20;99.90;;;;;;5013174;28;25076;-72
2021/08/30 07:46:20;;;;;;;37.45;25.52;;;17.20;99.90;;;;;;5013151;28;25111;-72
2021/08/30 07:48:49;;;;;;;34.15;22.90;;;17.20;99.90;;;;;;5012369;28;25055;-73
2021/08/30 07:51:15;;;;;;;38.35;21.73;;;17.20;99.90;;;;;;5010950;28;25069;-73
2021/08/30 07:53:43;;;;;;;38.55;23.48;;;17.20;99.90;;;;;;5010819;28;25117;-73
2021/08/30 07:56:09;;;;;;;33.15;22.08;;;17.30;99.90;;;;;;5011132;28;25070;-74
2021/08/30 07:58:34;;;;;;;33.63;21.15;;;17.30;99.90;;;;;;5011781;28;25081;-72
2021/08/30 08:01:00;;;;;;;38.65;20.63;;;17.40;99.90;;;;;;5010805;28;25174;-74
2021/08/30 08:03:25;;;;;;;34.92;21.92;;;17.40;99.90;;;;;;5001304;28;25102;-75
2021/08/30 08:05:51;;;;;;;32.60;22.70;;;17.40;99.90;;;;;;5005988;28;25081;-73
2021/08/30 08:08:17;;;;;;;34.75;21.70;;;17.30;99.90;;;;;;5012124;28;25066;-71
2021/08/30 08:10:43;;;;;;;34.80;21.30;;;17.40;99.90;;;;;;5010567;28;25071;-72
2021/08/30 08:13:10;;;;;;;32.33;22.33;;;17.40;99.90;;;;;;5009860;28;25068;-72
2021/08/30 08:15:36;;;;;;;33.47;20.27;;;17.40;99.90;;;;;;5011906;28;25105;-73
2021/08/30 08:18:02;;;;;;;34.92;22.70;;;17.50;99.90;;;;;;5010664;28;25073;-74
2021/08/30 08:20:30;;;;;;;34.53;22.08;;;17.50;99.90;;;;;;5011995;28;25070;-72
2021/08/30 08:22:56;;;;;;;31.05;20.65;;;17.50;99.90;;;;;;4995240;28;25145;-72
2021/08/30 08:25:22;;;;;;;32.20;21.77;;;17.50;99.90;;;;;;4993851;28;25107;-72
2021/08/30 08:27:48;;;;;;;35.78;21.02;;;17.50;99.90;;;;;;4992713;28;25079;-74
2021/08/30 08:30:13;;;;;;;32.13;22.08;;;17.60;99.90;;;;;;5009876;28;25143;-71
2021/08/30 08:32:41;;;;;;;35.03;21.55;;;17.60;99.90;;;;;;5012186;28;25117;-73
2021/08/30 08:35:07;;;;;;;34.65;20.92;;;17.60;99.90;;;;;;4997420;28;25067;-73
2021/08/30 08:37:33;;;;;;;31.92;21.20;;;17.60;99.90;;;;;;5012321;28;25147;-74
2021/08/30 08:39:59;;;;;;;37.13;22.45;;;17.70;99.90;;;;;;5011718;28;25059;-74
2021/08/30 08:42:24;;;;;;;35.25;19.75;;;17.70;99.90;;;;;;5010340;28;25087;-75
2021/08/30 08:44:50;;;;;;;35.15;20.48;;;17.80;99.90;;;;;;5009219;28;25070;-72
2021/08/30 08:47:16;;;;;;;36.03;19.35;;;17.80;99.90;;;;;;5011613;28;25106;-72
2021/08/30 08:49:43;;;;;;;31.63;19.17;;;17.90;99.90;;;;;;5012240;28;25164;-70
2021/08/30 08:52:09;;;;;;;28.13;18.15;;;18.00;99.90;;;;;;5017897;28;25099;-71
2021/08/30 08:54:35;;;;;;;35.05;18.05;;;18.00;99.90;;;;;;5017082;28;25072;-74
2021/08/30 08:57:03;;;;;;;27.83;18.75;;;18.10;99.90;;;;;;5012625;28;25099;-74
2021/08/30 08:59:29;;;;;;;30.85;18.50;;;18.00;99.90;;;;;;5009647;28;25048;-75
2021/08/30 09:01:59;;;;;;;29.77;17.88;;;18.00;99.90;;;;;;5010473;28;25059;-73
2021/08/30 09:04:36;;;;;;;31.80;18.02;;;18.00;99.90;;;;;;5009813;28;25082;-73
2021/08/30 09:07:12;;;;;;;29.27;17.45;;;18.00;99.90;;;;;;5009874;28;25083;-72
2021/08/30 09:09:40;;;;;;;28.75;17.63;;;18.00;99.90;;;;;;5011061;28;25073;-72
2021/08/30 09:12:20;;;;;;;32.80;18.92;;;18.00;99.90;;;;;;5011179;28;25047;-75
2021/08/30 09:14:46;;;;;;;29.35;18.88;;;18.00;99.90;;;;;;5010374;28;25050;-73
2021/08/30 09:17:11;;;;;;;27.25;18.63;;;18.00;99.90;;;;;;5010919;28;25139;-73
2021/08/30 09:19:38;;;;;;;32.83;18.83;;;17.90;99.90;;;;;;5009635;28;25084;-73
2021/08/30 09:22:06;;;;;;;29.70;17.10;;;18.00;99.90;;;;;;5010849;28;25058;-72
2021/08/30 09:24:32;;;;;;;25.48;17.98;;;18.00;99.90;;;;;;5008346;28;25074;-73
2021/08/30 09:27:03;;;;;;;29.20;19.00;;;18.00;99.90;;;;;;5000998;28;25068;-74
2021/08/30 09:29:32;;;;;;;28.50;18.52;;;18.10;99.90;;;;;;5009340;28;25181;-75
2021/08/30 09:32:07;;;;;;;33.53;18.50;;;18.10;99.90;;;;;;5008674;28;25144;-74
2021/08/30 09:34:43;;;;;;;31.73;17.70;;;18.10;99.90;;;;;;5009876;28;25096;-73
2021/08/30 09:37:15;;;;;;;27.65;16.85;;;18.10;99.90;;;;;;4996972;28;25119;-69
2021/08/30 09:39:51;;;;;;;29.25;18.88;;;18.20;99.90;;;;;;5009635;28;25109;-73
2021/08/30 09:42:18;;;;;;;34.88;18.75;;;18.20;99.90;;;;;;5010517;28;25127;-73
2021/08/30 09:44:45;;;;;;;30.98;17.70;;;18.10;99.90;;;;;;5008032;28;25064;-74
2021/08/30 09:47:17;;;;;;;29.00;16.55;;;18.10;99.90;;;;;;4992181;28;25072;-74
2021/08/30 09:49:47;;;;;;;;;;;18.20;99.90;;;;;;5009022;28;25084;-70
2021/08/30 09:52:13;;;;;;;31.95;17.23;;;18.20;99.90;;;;;;5010456;28;24075;-71
2021/08/30 09:54:39;;;;;;;29.92;17.42;;;18.40;99.90;;;;;;5012246;28;25083;-73
2021/08/30 09:57:05;;;;;;;28.85;15.57;;;18.30;99.90;;;;;;5012127;28;25098;-74
2021/08/30 09:59:31;;;;;;;36.33;16.80;;;18.40;99.90;;;;;;5011349;28;25142;-73
2021/08/30 10:02:00;;;;;;;38.70;16.65;;;18.50;99.90;;;;;;5012775;28;25066;-74
2021/08/30 10:04:27;;;;;;;30.55;16.58;;;18.60;99.90;;;;;;5010478;28;25061;-74
2021/08/30 10:06:54;;;;;;;35.88;17.52;;;18.60;99.90;;;;;;5010645;28;25067;-73
2021/08/30 10:09:21;;;;;;;31.40;16.35;;;18.60;99.90;;;;;;5009678;28;25146;-73
2021/08/30 10:11:54;;;;;;;28.75;16.20;;;18.60;99.90;;;;;;4991275;28;25064;-73
2021/08/30 10:14:24;;;;;;;;;;;18.60;99.90;;;;;;5010380;28;29063;-71
2021/08/30 10:16:51;;;;;;;27.27;17.10;;;18.50;99.90;;;;;;5009571;28;24068;-76
2021/08/30 10:19:29;;;;;;;27.25;15.75;;;18.50;99.90;;;;;;5011551;28;25109;-72
2021/08/30 10:21:56;;;;;;;26.88;17.00;;;18.60;99.90;;;;;;4992759;28;25097;-73
2021/08/30 10:24:22;;;;;;;37.33;16.00;;;18.60;99.90;;;;;;5010711;28;25117;-73
2021/08/30 10:26:48;;;;;;;28.30;15.27;;;18.70;99.90;;;;;;5010039;28;25131;-74
2021/08/30 10:29:15;;;;;;;29.27;15.98;;;18.80;99.90;;;;;;4999112;28;25136;-74
2021/08/30 10:31:50;;;;;;;31.55;16.05;;;18.90;99.90;;;;;;4987535;28;25123;-74
2021/08/30 10:34:29;;;;;;;30.90;15.60;;;18.90;99.90;;;;;;4984117;28;25109;-71
2021/08/30 10:36:56;;;;;;;29.00;15.63;;;18.90;99.90;;;;;;5006197;28;25097;-74
2021/08/30 10:39:23;;;;;;;26.75;14.85;;;19.00;99.90;;;;;;5008118;28;25054;-72
2021/08/30 10:41:50;;;;;;;25.95;14.32;;;19.00;99.90;;;;;;5010996;28;25080;-72
2021/08/30 10:44:22;;;;;;;21.25;13.13;;;19.20;99.90;;;;;;5014480;28;25157;-74
2021/08/30 10:46:50;;;;;;;22.15;13.35;;;19.30;99.90;;;;;;5017137;28;25066;-73
2021/08/30 10:49:33;;;;;;;25.42;15.40;;;19.40;99.90;;;;;;5018364;28;25070;-74
2021/08/30 10:52:14;;;;;;;23.73;14.15;;;19.50;99.90;;;;;;5020097;28;25100;-74
2021/08/30 10:54:56;;;;;;;25.67;14.20;;;19.50;99.90;;;;;;5019303;28;25076;-74
2021/08/30 10:57:39;;;;;;;21.67;13.75;;;19.50;99.90;;;;;;5020612;28;25121;-73
2021/08/30 11:00:09;;;;;;;25.23;12.73;;;19.40;99.90;;;;;;5022550;28;25161;-74
2021/08/30 11:02:45;;;;;;;26.20;14.00;;;19.70;99.90;;;;;;5012961;28;25099;-75
2021/08/30 11:05:11;;;;;;;19.80;13.07;;;19.80;99.90;;;;;;5021871;28;25057;-73
2021/08/30 11:07:37;;;;;;;28.58;14.13;;;20.00;99.90;;;;;;5025846;28;25078;-74
2021/08/30 11:10:05;;;;;;;23.88;13.68;;;19.90;99.90;;;;;;5030948;28;25100;-74
2021/08/30 11:12:32;;;;;;;23.85;14.70;;;19.80;99.90;;;;;;5021270;28;25127;-74
2021/08/30 11:14:59;;;;;;;21.30;12.57;;;19.80;99.90;;;;;;5017207;28;25051;-74
2021/08/30 11:17:33;;;;;;;23.90;13.80;;;19.80;99.90;;;;;;5016498;28;25046;-73
2021/08/30 11:20:00;;;;;;;24.13;11.82;;;19.80;99.90;;;;;;5031443;28;25053;-74
2021/08/30 11:22:27;;;;;;;16.05;11.32;;;19.80;99.90;;;;;;5033243;28;25042;-72
2021/08/30 11:24:54;;;;;;;22.13;13.10;;;19.90;99.90;;;;;;5034483;28;25059;-73
2021/08/30 11:27:29;;;;;;;18.52;11.38;;;19.70;99.90;;;;;;5005398;28;25133;-74
2021/08/30 11:30:01;;;;;;;21.95;11.88;;;19.60;99.90;;;;;;5016584;28;25102;-75
2021/08/30 11:32:29;;;;;;;17.13;12.07;;;19.60;99.90;;;;;;5018682;28;25098;-76
2021/08/30 11:34:57;;;;;;;20.60;11.80;;;19.70;99.90;;;;;;5016478;28;25058;-75
2021/08/30 11:37:26;;;;;;;21.27;11.73;;;19.70;99.90;;;;;;5016714;28;25071;-75
2021/08/30 11:39:56;;;;;;;21.55;11.52;;;19.90;99.90;;;;;;4998549;28;25153;-74
2021/08/30 11:42:25;;;;;;;21.90;10.77;;;20.10;99.90;;;;;;5014921;28;25071;-74
2021/08/30 11:44:53;;;;;;;24.52;12.10;;;20.00;99.90;;;;;;4998648;28;25052;-77
2021/08/30 11:47:21;;;;;;;21.30;12.40;;;19.80;99.90;;;;;;5014006;28;25074;-75
2021/08/30 11:49:49;;;;;;;19.83;12.32;;;19.80;99.90;;;;;;5014302;28;25085;-74
2021/08/30 11:52:16;;;;;;;32.10;13.93;;;19.80;99.90;;;;;;5013990;28;25073;-76
2021/08/30 11:54:59;;;;;;;23.67;14.52;;;19.90;99.90;;;;;;5014887;28;25075;-76
2021/08/30 11:57:35;;;;;;;22.48;12.55;;;20.10;99.90;;;;;;5013580;28;25070;-75
2021/08/30 12:00:02;;;;;;;22.35;10.80;;;20.20;99.90;;;;;;5013452;28;25506;-74
2021/08/30 12:02:33;;;;;;;20.10;12.15;;;20.40;99.90;;;;;;5011096;28;25083;-73
2021/08/30 12:05:01;;;;;;;20.50;12.30;;;20.20;99.90;;;;;;5013624;28;25060;-76
2021/08/30 12:07:33;;;;;;;22.67;11.90;;;20.10;99.90;;;;;;5016699;28;25057;-75
2021/08/30 12:09:59;;;;;;;17.77;11.30;;;20.10;99.90;;;;;;5001673;28;25149;-72
2021/08/30 12:12:34;;;;;;;22.30;12.63;;;20.10;99.90;;;;;;4995562;28;25182;-74
2021/08/30 12:15:07;;;;;;;21.88;12.20;;;20.10;99.90;;;;;;5011339;28;25162;-75
2021/08/30 12:17:40;;;;;;;20.70;11.63;;;20.00;99.90;;;;;;5012901;28;25057;-75
2021/08/30 12:20:11;;;;;;;20.13;11.48;;;20.00;99.90;;;;;;4999522;28;25160;-74
2021/08/30 12:22:40;;;;;;;18.60;11.63;;;20.00;99.90;;;;;;5013485;28;25160;-76
2021/08/30 12:25:10;;;;;;;20.08;11.35;;;20.00;99.90;;;;;;5012153;28;25126;-75
2021/08/30 12:27:39;;;;;;;18.73;11.88;;;20.00;99.90;;;;;;5012001;28;25137;-73
2021/08/30 12:30:32;;;;;;;20.48;12.82;;;20.10;99.90;;;;;;5014159;28;25056;-72
2021/08/30 12:33:17;;;;;;;23.73;12.07;;;20.00;99.90;;;;;;5013548;28;25096;-73
2021/08/30 12:35:54;;;;;;;21.83;11.25;;;19.90;99.90;;;;;;4996466;28;25059;-73